Time;durP1;ratioP1;P1;durP2;ratioP2;P2;SDS_P1;SDS_P2;PMS_P1;PMS_P2;Temp;Humidity;BMP_temperature;BMP_pressure;BME280_temperature;BME280_humidity;BME280_pressure;Samples;Min_cycle;Max_cycle;Signal;HPM_P1;HPM_P2
2022/04/28 00:02:21;;;;;;;42.50;25.30;;;;;;;4.65;58.09;101007.37;130366;1268;108833;-78
2022/04/28 00:05:27;;;;;;;38.50;23.80;;;;;;;4.62;57.96;101004.17;130477;1268;107573;-79
2022/04/28 00:08:32;;;;;;;41.20;24.10;;;;;;;4.58;58.13;101005.20;130515;1268;108743;-79
2022/04/28 00:11:38;;;;;;;39.80;24.30;;;;;;;4.54;58.12;101002.92;130363;1268;108549;-79
2022/04/28 00:14:44;;;;;;;36.80;23.00;;;;;;;4.50;58.20;101001.24;130628;1268;108653;-80
2022/04/28 00:17:49;;;;;;;39.50;23.00;;;;;;;4.47;58.12;101001.08;130744;1268;108961;-80
2022/04/28 00:20:55;;;;;;;45.60;25.10;;;;;;;4.43;58.32;101004.84;130371;1268;108840;-78
2022/04/28 00:24:02;;;;;;;48.00;25.50;;;;;;;4.40;58.17;101002.39;130386;1267;108741;-79
2022/04/28 00:27:08;;;;;;;44.00;25.40;;;;;;;4.37;58.32;101003.69;130400;1268;107707;-79
2022/04/28 00:30:13;;;;;;;45.60;24.90;;;;;;;4.34;58.30;101006.47;130390;1268;108822;-78
2022/04/28 00:33:20;;;;;;;41.10;23.70;;;;;;;4.31;58.32;101009.63;130341;1268;108819;-79
2022/04/28 00:36:26;;;;;;;40.00;22.80;;;;;;;4.30;58.47;101006.89;130413;1268;108236;-78
2022/04/28 00:39:32;;;;;;;38.30;22.70;;;;;;;4.28;58.27;101009.50;130474;1268;109166;-78
2022/04/28 00:42:37;;;;;;;36.20;21.60;;;;;;;4.24;58.41;101005.84;130519;1268;108726;-78
2022/04/28 00:45:43;;;;;;;38.30;21.80;;;;;;;4.22;58.58;101008.26;130410;1268;108803;-79
2022/04/28 00:52:13;;;;;;;38.30;21.70;;;;;;;4.18;58.48;101002.52;130492;1268;108850;-82
2022/04/28 00:55:19;;;;;;;39.80;23.40;;;;;;;4.14;58.61;101005.60;130554;1268;108733;-85
2022/04/28 00:58:25;;;;;;;35.80;21.70;;;;;;;4.10;58.61;101007.95;130553;1268;108831;-82
2022/04/28 01:01:30;;;;;;;38.80;22.30;;;;;;;4.05;58.58;101007.54;130425;1268;108577;-84
2022/04/28 01:04:36;;;;;;;37.90;23.20;;;;;;;4.04;58.94;101008.67;130249;1268;107738;-80
2022/04/28 01:07:42;;;;;;;37.00;23.20;;;;;;;4.03;58.85;101007.15;130369;1268;108696;-81
2022/04/28 01:10:47;;;;;;;38.30;21.30;;;;;;;4.00;58.80;101005.39;130328;1269;108812;-82
2022/04/28 01:13:53;;;;;;;36.00;21.20;;;;;;;3.96;58.92;101007.88;130474;1268;108657;-81
2022/04/28 01:17:06;;;;;;;34.00;20.30;;;;;;;3.95;59.02;101007.75;130511;1268;108864;-80
2022/04/28 01:20:14;;;;;;;38.70;20.90;;;;;;;3.94;59.05;101011.36;130406;1268;109092;-81
2022/04/28 01:23:19;;;;;;;35.70;21.70;;;;;;;3.90;58.96;101005.58;130371;1266;108762;-81
2022/04/28 01:26:28;;;;;;;37.10;21.40;;;;;;;3.88;59.00;101002.72;130633;1268;105927;-81
2022/04/28 01:29:35;;;;;;;32.40;20.50;;;;;;;3.86;59.04;101003.36;130414;1268;108924;-84
2022/04/28 01:32:41;;;;;;;33.90;21.10;;;;;;;3.84;59.19;101002.11;130360;1268;108914;-82
2022/04/28 01:35:47;;;;;;;37.70;20.30;;;;;;;3.81;59.02;100999.45;130426;1267;107732;-81
2022/04/28 01:38:52;;;;;;;35.20;21.70;;;;;;;3.74;59.14;100999.49;130327;1268;172906;-77
2022/04/28 01:41:58;;;;;;;33.00;20.60;;;;;;;3.67;59.12;100998.16;130282;1268;108719;-77
2022/04/28 01:45:06;;;;;;;34.60;21.90;;;;;;;3.60;59.20;100998.08;130349;1268;108707;-76
2022/04/28 01:48:12;;;;;;;45.90;25.10;;;;;;;3.55;59.21;101005.20;130305;1267;107307;-77
2022/04/28 01:54:59;;;;;;;44.40;24.70;;;;;;;3.50;59.55;101011.66;130252;1268;108822;-82
2022/04/28 01:58:25;;;;;;;38.60;22.80;;;;;;;3.48;59.60;101013.90;130551;1266;106912;-83
2022/04/28 02:01:45;;;;;;;38.00;22.40;;;;;;;3.47;59.47;101011.65;130506;1268;108748;-84
2022/04/28 02:04:51;;;;;;;38.50;22.60;;;;;;;3.45;59.55;101010.16;130445;1268;109086;-78
2022/04/28 02:07:56;;;;;;;37.50;22.50;;;;;;;3.41;59.60;101010.63;130319;1268;107464;-77
2022/04/28 02:11:02;;;;;;;35.80;21.80;;;;;;;3.40;59.56;101005.53;130413;1268;107829;-78
2022/04/28 02:14:27;;;;;;;36.80;22.00;;;;;;;3.39;59.49;100998.91;130371;1268;108884;-77
2022/04/28 02:17:40;;;;;;;37.40;22.20;;;;;;;3.35;59.67;100995.98;130467;1268;108629;-79
2022/04/28 02:20:46;;;;;;;39.90;22.80;;;;;;;3.30;59.81;100997.13;130337;1268;108965;-77
2022/04/28 02:23:51;;;;;;;42.10;22.00;;;;;;;3.29;59.67;101000.56;130302;1268;108635;-77
2022/04/28 02:26:57;;;;;;;49.50;26.80;;;;;;;3.25;59.70;101000.40;130334;1268;108785;-78
2022/04/28 02:30:03;;;;;;;49.70;26.00;;;;;;;3.24;59.83;100997.29;130339;1268;108691;-76
2022/04/28 02:33:10;;;;;;;39.90;23.70;;;;;;;3.25;59.93;100994.25;130365;1268;108981;-76
2022/04/28 02:36:44;;;;;;;36.00;22.30;;;;;;;3.25;59.81;100990.73;130456;1268;109040;-74
2022/04/28 02:39:50;;;;;;;37.90;20.30;;;;;;;3.22;59.80;100988.81;130221;1268;109575;-75
2022/04/28 02:42:56;;;;;;;31.10;17.80;;;;;;;3.22;59.98;100987.60;130365;1268;108806;-81
2022/04/28 02:46:01;;;;;;;36.50;19.40;;;;;;;3.27;59.86;100984.46;130322;1268;107703;-77
2022/04/28 02:49:17;;;;;;;34.00;19.30;;;;;;;3.31;59.76;100985.63;130276;1268;108939;-76
2022/04/28 02:52:23;;;;;;;33.90;19.90;;;;;;;3.31;59.95;100987.05;130294;1268;108651;-77
2022/04/28 02:55:31;;;;;;;32.50;20.60;;;;;;;3.32;59.91;100985.10;130387;1268;108738;-76
2022/04/28 02:58:37;;;;;;;36.70;21.60;;;;;;;3.32;60.01;100985.60;130505;1268;108847;-78
2022/04/28 03:01:44;;;;;;;37.20;21.70;;;;;;;3.36;59.93;100983.79;130417;1268;108788;-80
2022/04/28 03:04:50;;;;;;;34.50;21.60;;;;;;;3.35;59.96;100988.77;130756;1268;108699;-79
2022/04/28 03:11:20;;;;;;;34.00;21.10;;;;;;;3.25;60.05;100994.08;130911;1268;108993;-79
2022/04/28 03:14:26;;;;;;;35.90;21.60;;;;;;;3.25;60.10;100994.24;133224;1268;108786;-85
2022/04/28 03:17:33;;;;;;;37.40;21.90;;;;;;;3.28;60.02;100997.06;134374;1268;107895;-87
2022/04/28 03:20:38;;;;;;;37.70;21.50;;;;;;;3.32;60.14;100997.05;132213;1268;105875;-89
2022/04/28 03:23:44;;;;;;;36.30;20.90;;;;;;;3.41;60.26;100997.73;130659;1271;108909;-82
2022/04/28 03:26:51;;;;;;;38.20;22.00;;;;;;;3.50;60.30;100998.99;130399;1268;108791;-84
2022/04/28 03:29:57;;;;;;;38.30;21.90;;;;;;;3.58;60.32;100999.56;130355;1268;108844;-84
2022/04/28 03:33:02;;;;;;;37.80;22.50;;;;;;;3.66;60.23;100996.09;130284;1268;108944;-85
2022/04/28 03:39:29;;;;;;;36.70;22.10;;;;;;;3.81;60.43;100995.59;130460;1268;108676;-82
2022/04/28 03:42:34;;;;;;;35.30;21.60;;;;;;;3.86;60.43;100997.92;130463;1268;108863;-84
2022/04/28 03:45:41;;;;;;;37.70;22.80;;;;;;;3.94;60.60;100998.00;130399;1268;108828;-83
2022/04/28 03:48:53;;;;;;;41.00;24.50;;;;;;;4.03;60.66;101002.55;130463;1268;108782;-84
2022/04/28 03:51:59;;;;;;;38.90;23.70;;;;;;;4.15;60.78;100996.16;130411;1268;108696;-78
2022/04/28 03:55:05;;;;;;;38.10;22.50;;;;;;;4.30;60.68;101000.34;130348;1268;108668;-81
2022/04/28 03:58:11;;;;;;;36.50;22.00;;;;;;;4.42;60.84;101003.14;130498;1268;108847;-76
2022/04/28 04:01:17;;;;;;;35.70;23.10;;;;;;;4.49;60.77;101005.39;130246;1268;108735;-77
2022/04/28 04:04:40;;;;;;;37.30;23.60;;;;;;;4.55;60.86;101006.92;130424;1268;108827;-77
2022/04/28 04:07:47;;;;;;;39.30;23.10;;;;;;;4.61;61.05;101005.67;130405;1268;108969;-82
2022/04/28 04:11:00;;;;;;;36.60;22.10;;;;;;;4.68;61.18;101007.17;130338;1268;108638;-80
2022/04/28 04:14:05;;;;;;;34.40;20.00;;;;;;;4.76;61.14;101006.86;130434;1268;109218;-80
2022/04/28 04:17:12;;;;;;;37.50;21.80;;;;;;;4.89;61.27;101003.22;130315;1268;108685;-79
2022/04/28 04:20:18;;;;;;;37.90;23.30;;;;;;;4.99;61.33;101011.38;130367;1268;108763;-80
2022/04/28 04:23:24;;;;;;;39.10;25.40;;;;;;;4.88;62.50;101023.17;130467;1267;108660;-80
2022/04/28 04:26:30;;;;;;;46.30;26.80;;;;;;;4.70;64.05;101037.69;130405;1268;110122;-80
2022/04/28 04:29:36;;;;;;;42.20;26.50;;;;;;;4.53;64.13;101037.34;130418;1268;108668;-80
2022/04/28 04:32:54;;;;;;;45.70;27.80;;;;;;;4.51;64.75;101045.91;130485;1268;108722;-80
2022/04/28 04:36:03;;;;;;;43.20;28.00;;;;;;;4.53;65.26;101047.05;130419;1268;108660;-79
2022/04/28 04:39:09;;;;;;;45.00;28.20;;;;;;;4.57;64.52;101049.27;130383;1268;108755;-81
2022/04/28 04:42:20;;;;;;;41.70;26.10;;;;;;;4.67;64.05;101051.11;130368;1268;108945;-80
2022/04/28 04:45:26;;;;;;;41.60;24.30;;;;;;;4.87;63.74;101046.55;130258;1268;107727;-80
2022/04/28 04:48:48;;;;;;;41.70;24.60;;;;;;;5.11;64.34;101052.92;130221;1268;108675;-81
2022/04/28 04:52:12;;;;;;;42.30;25.40;;;;;;;5.34;64.07;101054.14;130417;1268;109000;-80
2022/04/28 04:55:36;;;;;;;40.80;26.10;;;;;;;5.56;63.88;101053.02;130484;1268;108656;-80
2022/04/28 04:58:44;;;;;;;37.60;24.40;;;;;;;5.78;63.62;101050.86;130343;1268;108787;-80
2022/04/28 05:01:50;;;;;;;38.10;24.40;;;;;;;5.96;63.93;101051.61;130228;1268;106759;-80
2022/04/28 05:05:15;;;;;;;37.50;23.60;;;;;;;6.12;64.05;101052.33;130318;1268;108980;-80
2022/04/28 05:08:41;;;;;;;38.00;23.80;;;;;;;6.32;63.82;101053.63;130270;1268;109274;-79
2022/04/28 05:11:49;;;;;;;43.00;25.40;;;;;;;6.49;63.93;101052.77;130317;1268;108720;-79
2022/04/28 05:15:10;;;;;;;39.80;25.00;;;;;;;6.63;63.64;101051.95;130334;1268;108740;-79
2022/04/28 05:18:27;;;;;;;40.40;26.20;;;;;;;6.70;63.90;101056.20;130238;1268;108906;-78
2022/04/28 05:21:42;;;;;;;36.80;24.60;;;;;;;6.80;64.28;101053.40;130331;1268;108942;-80
2022/04/28 05:24:51;;;;;;;38.60;25.00;;;;;;;6.89;63.88;101054.89;130371;1268;108771;-80
2022/04/28 05:28:15;;;;;;;39.10;23.60;;;;;;;6.96;64.67;101058.48;130289;1268;108909;-79
2022/04/28 05:31:44;;;;;;;31.50;20.50;;;;;;;6.96;64.29;101063.64;129996;1268;108771;-78
2022/04/28 05:35:09;;;;;;;39.40;23.40;;;;;;;7.07;64.49;101064.59;130344;1268;108805;-78
2022/04/28 05:38:15;;;;;;;34.20;21.80;;;;;;;7.11;64.32;101068.23;130364;1268;109500;-79
2022/04/28 05:41:21;;;;;;;34.00;21.70;;;;;;;7.13;64.49;101072.27;130382;1268;108615;-80
2022/04/28 05:47:50;;;;;;;35.50;23.50;;;;;;;6.92;65.80;101086.55;130400;1267;108747;-78
2022/04/28 05:50:56;;;;;;;39.50;24.70;;;;;;;6.86;67.30;101097.23;130238;1268;107958;-79
2022/04/28 05:54:01;;;;;;;37.10;23.90;;;;;;;6.75;65.89;101091.30;130366;1268;108754;-78
2022/04/28 05:57:07;;;;;;;36.30;22.60;;;;;;;6.77;67.51;101107.44;130245;1268;108875;-78
2022/04/28 06:00:16;;;;;;;32.00;20.10;;;;;;;6.59;66.90;101102.25;130335;1268;108996;-78
2022/04/28 06:03:22;;;;;;;29.60;18.30;;;;;;;6.60;65.73;101093.88;130384;1268;107378;-78
2022/04/28 06:06:38;;;;;;;30.20;18.90;;;;;;;6.75;65.86;101099.55;130367;1268;108720;-80
2022/04/28 06:09:49;;;;;;;31.00;19.50;;;;;;;6.84;65.93;101102.65;130429;1268;108739;-80
2022/04/28 06:12:56;;;;;;;32.70;19.60;;;;;;;6.92;65.81;101099.30;130335;1268;108683;-79
2022/04/28 06:16:21;;;;;;;30.00;18.90;;;;;;;6.99;65.89;101103.36;130408;1268;108859;-80
2022/04/28 06:19:36;;;;;;;28.20;18.50;;;;;;;7.00;65.47;101099.20;130385;1268;108675;-80
2022/04/28 06:23:19;;;;;;;28.50;18.20;;;;;;;7.08;65.86;101102.73;130344;1268;108834;-79
2022/04/28 06:26:26;;;;;;;28.30;18.30;;;;;;;7.06;65.78;101102.65;130384;1268;108783;-77
2022/04/28 06:29:32;;;;;;;27.20;17.40;;;;;;;7.07;66.03;101102.44;130329;1268;108755;-77
2022/04/28 06:32:41;;;;;;;28.90;18.00;;;;;;;7.14;65.54;101099.52;130266;1268;108842;-77
2022/04/28 06:36:03;;;;;;;27.30;17.20;;;;;;;7.24;65.26;101093.96;130274;1268;108980;-79
2022/04/28 06:39:15;;;;;;;27.20;17.20;;;;;;;7.32;65.48;101097.33;130326;1267;108954;-81
2022/04/28 06:42:21;;;;;;;23.40;15.10;;;;;;;7.37;65.68;101099.57;130156;1268;108959;-81
2022/04/28 06:49:23;;;;;;;27.70;17.70;;;;;;;7.69;65.82;101094.61;130327;1268;108930;-78
2022/04/28 06:53:01;;;;;;;27.90;18.00;;;;;;;7.87;65.64;101090.92;130320;1268;108673;-79
2022/04/28 06:56:12;;;;;;;29.10;18.70;;;;;;;8.03;65.68;101095.43;130238;1268;108959;-78
2022/04/28 06:59:38;;;;;;;28.30;19.50;;;;;;;8.18;65.77;101085.39;130330;1268;108669;-80
2022/04/28 07:02:44;;;;;;;30.20;20.30;;;;;;;8.30;65.66;101083.48;130351;1268;107808;-80
2022/04/28 07:05:50;;;;;;;34.40;22.30;;;;;;;8.40;65.61;101080.60;130254;1268;109594;-80
2022/04/28 07:08:55;;;;;;;34.40;21.70;;;;;;;8.49;65.56;101086.05;130415;1268;108834;-80
2022/04/28 07:12:01;;;;;;;32.30;20.90;;;;;;;8.57;65.69;101087.77;130259;1268;108882;-80
2022/04/28 07:15:39;;;;;;;31.10;19.20;;;;;;;8.71;65.82;101092.39;130393;1268;108641;-80
2022/04/28 07:19:06;;;;;;;29.30;18.20;;;;;;;8.88;65.95;101089.80;130103;1268;109156;-78
2022/04/28 07:22:12;;;;;;;26.40;17.70;;;;;;;9.07;65.70;101094.13;130190;1268;108801;-80
2022/04/28 07:25:18;;;;;;;27.80;17.80;;;;;;;9.23;65.16;101094.46;130306;1268;108900;-80
2022/04/28 07:28:24;;;;;;;28.30;17.50;;;;;;;9.40;64.94;101095.35;130252;1268;108866;-81
2022/04/28 07:31:43;;;;;;;33.20;20.70;;;;;;;9.61;64.74;101095.45;130300;1268;108718;-80
2022/04/28 07:34:49;;;;;;;37.70;21.60;;;;;;;9.80;64.57;101094.27;130361;1268;108631;-80
2022/04/28 07:38:14;;;;;;;34.30;18.80;;;;;;;9.97;64.30;101096.21;130382;1267;108709;-80
2022/04/28 07:41:38;;;;;;;29.00;18.00;;;;;;;10.13;64.38;101100.02;130308;1268;109068;-77
2022/04/28 07:44:44;;;;;;;28.10;20.30;;;;;;;10.27;64.29;101099.00;130330;1267;108761;-78
2022/04/28 07:47:51;;;;;;;28.90;18.60;;;;;;;10.35;63.76;101090.55;130314;1268;108663;-78
2022/04/28 07:51:01;;;;;;;24.40;17.70;;;;;;;10.40;63.92;101091.01;130352;1268;108815;-78
2022/04/28 07:54:08;;;;;;;25.00;17.00;;;;;;;10.39;63.89;101095.86;130312;1268;108798;-78
2022/04/28 07:57:14;;;;;;;28.60;19.40;;;;;;;10.37;63.95;101103.70;130201;1267;108998;-79
2022/04/28 08:00:21;;;;;;;25.40;17.90;;;;;;;10.37;63.81;101108.20;130333;1268;108922;-79
2022/04/28 08:03:28;;;;;;;25.60;18.60;;;;;;;10.30;64.09;101108.76;130343;1268;108687;-78
2022/04/28 08:06:35;;;;;;;26.40;17.40;;;;;;;10.31;64.21;101112.61;130311;1268;108707;-78
2022/04/28 08:09:41;;;;;;;28.00;18.00;;;;;;;10.30;63.86;101115.67;130215;1268;108665;-78
2022/04/28 08:12:49;;;;;;;31.50;20.00;;;;;;;10.29;63.83;101118.98;130307;1268;108825;-79
2022/04/28 08:16:14;;;;;;;27.40;19.10;;;;;;;10.46;63.71;101118.39;130340;1268;108888;-79
2022/04/28 08:19:22;;;;;;;27.90;19.50;;;;;;;10.72;64.17;101120.48;130211;1268;108730;-80
2022/04/28 08:22:37;;;;;;;27.90;20.00;;;;;;;11.03;63.86;101119.02;130331;1268;108710;-80
2022/04/28 08:25:43;;;;;;;27.50;19.30;;;;;;;11.34;63.63;101113.93;130317;1268;108797;-80
2022/04/28 08:28:50;;;;;;;25.10;19.40;;;;;;;11.71;63.17;101111.15;130375;1268;108818;-80
2022/04/28 08:31:56;;;;;;;25.30;18.80;;;;;;;12.11;63.24;101112.70;130315;1268;108710;-80
2022/04/28 08:35:01;;;;;;;25.90;19.00;;;;;;;12.42;62.64;101115.39;130351;1267;108781;-80
2022/04/28 08:38:07;;;;;;;26.40;18.00;;;;;;;12.73;62.42;101114.10;130207;1268;108764;-79
2022/04/28 08:41:17;;;;;;;22.10;16.80;;;;;;;12.95;61.76;101106.60;130272;1267;108786;-79
2022/04/28 08:44:44;;;;;;;26.30;17.00;;;;;;;13.21;61.50;101109.95;130285;1268;108729;-79
2022/04/28 08:48:04;;;;;;;21.40;16.10;;;;;;;13.47;61.51;101110.06;130249;1267;109056;-79
2022/04/28 08:51:29;;;;;;;18.60;13.20;;;;;;;13.66;58.64;101109.59;130268;1268;108868;-80
2022/04/28 08:54:40;;;;;;;21.60;14.50;;;;;;;13.70;59.58;101106.64;130346;1267;108872;-79
2022/04/28 08:57:46;;;;;;;15.50;11.70;;;;;;;13.93;60.10;101109.42;130375;1267;108801;-79
2022/04/28 09:00:53;;;;;;;19.00;13.20;;;;;;;14.12;59.44;101107.66;130340;1268;108805;-78
2022/04/28 09:04:07;;;;;;;15.60;11.60;;;;;;;14.23;58.26;101105.15;130269;1268;108857;-78
2022/04/28 09:07:45;;;;;;;16.10;12.30;;;;;;;14.09;57.85;101105.09;130468;1268;108653;-79
2022/04/28 09:11:18;;;;;;;23.70;14.40;;;;;;;14.07;59.37;101109.16;130454;1268;107659;-78
2022/04/28 09:14:44;;;;;;;18.50;12.50;;;;;;;14.10;58.98;101107.70;130218;1268;108766;-78
2022/04/28 09:17:52;;;;;;;19.20;13.70;;;;;;;14.00;58.14;101107.23;130325;1267;108858;-78
2022/04/28 09:20:58;;;;;;;14.20;11.40;;;;;;;13.96;58.68;101108.69;130332;1267;108824;-78
2022/04/28 09:24:04;;;;;;;17.70;12.60;;;;;;;14.06;58.45;101115.45;130212;1268;108740;-77
2022/04/28 09:27:11;;;;;;;13.70;10.90;;;;;;;14.09;58.31;101113.14;130275;1268;107760;-78
2022/04/28 09:30:22;;;;;;;15.10;11.70;;;;;;;14.11;58.09;101112.05;130247;1268;108870;-77
2022/04/28 09:33:48;;;;;;;14.90;11.40;;;;;;;14.12;57.70;101110.14;130214;1268;108975;-77
2022/04/28 09:37:26;;;;;;;13.70;10.80;;;;;;;14.15;57.18;101108.80;130331;1268;108957;-78
2022/04/28 09:43:57;;;;;;;12.20;9.10;;;;;;;14.39;57.05;101106.18;130197;1270;108715;-77
2022/04/28 09:47:03;;;;;;;12.80;10.00;;;;;;;14.59;57.13;101103.94;130170;1268;108734;-77
2022/04/28 09:50:17;;;;;;;12.90;9.80;;;;;;;14.85;56.93;101105.20;130207;1268;108750;-78
2022/04/28 09:53:59;;;;;;;14.30;10.90;;;;;;;15.11;56.71;101102.51;129565;1274;108787;-78
2022/04/28 09:57:11;;;;;;;14.00;10.20;;;;;;;15.24;56.52;101095.06;130231;1268;108919;-77
2022/04/28 10:00:20;;;;;;;15.10;11.60;;;;;;;15.32;56.71;101092.88;130227;1268;108671;-77
2022/04/28 10:03:37;;;;;;;14.50;10.90;;;;;;;15.39;56.09;101088.79;130223;1268;109140;-78
2022/04/28 10:06:42;;;;;;;14.30;11.30;;;;;;;15.46;55.71;101092.00;130198;1268;108746;-78
2022/04/28 10:10:01;;;;;;;13.10;9.80;;;;;;;15.53;55.45;101089.39;130203;1268;107707;-78
2022/04/28 10:13:09;;;;;;;13.60;9.90;;;;;;;15.58;55.20;101089.20;130167;1268;108771;-77
2022/04/28 10:16:22;;;;;;;13.00;10.40;;;;;;;15.68;55.35;101087.67;130252;1268;108840;-77
2022/04/28 10:19:34;;;;;;;14.40;9.80;;;;;;;15.82;55.22;101086.50;130214;1268;108662;-77
2022/04/28 10:22:47;;;;;;;11.20;9.50;;;;;;;15.96;54.81;101084.05;130342;1268;108850;-77
2022/04/28 10:33:10;;;;;;;13.20;9.50;;;;;;;16.11;52.97;101081.50;130415;1268;108660;-77
2022/04/28 10:36:20;;;;;;;14.00;9.30;;;;;;;16.00;51.76;101083.48;130344;1268;108693;-77
2022/04/28 10:39:39;;;;;;;13.10;8.90;;;;;;;15.71;51.44;101079.41;130450;1267;108702;-77
2022/04/28 10:43:01;;;;;;;11.50;8.70;;;;;;;15.48;51.34;101079.53;130416;1268;108635;-78
2022/04/28 10:46:31;;;;;;;12.20;9.80;;;;;;;15.28;52.15;101080.02;130425;1268;108696;-79
2022/04/28 10:49:40;;;;;;;12.40;9.60;;;;;;;15.18;51.93;101077.94;130480;1267;108720;-77
2022/04/28 10:52:53;;;;;;;15.70;9.70;;;;;;;15.11;52.19;101079.23;130369;1268;108793;-77
2022/04/28 10:56:08;;;;;;;12.50;10.10;;;;;;;15.12;50.40;101074.08;130427;1267;108661;-77
2022/04/28 10:59:34;;;;;;;12.30;10.10;;;;;;;15.18;50.12;101075.06;130433;1268;108665;-77
2022/04/28 11:02:48;;;;;;;13.60;9.50;;;;;;;15.26;49.46;101071.73;130374;1268;108794;-78
2022/04/28 11:05:55;;;;;;;12.80;10.60;;;;;;;15.36;49.88;101077.42;130459;1268;108720;-77
2022/04/28 11:09:03;;;;;;;15.10;9.90;;;;;;;15.41;47.60;101079.21;130477;1268;108678;-77
2022/04/28 11:12:17;;;;;;;10.50;8.40;;;;;;;15.42;49.15;101073.77;130469;1268;108297;-78
2022/04/28 11:15:25;;;;;;;12.10;8.40;;;;;;;15.54;48.69;101075.37;130398;1266;108663;-78
2022/04/28 11:18:31;;;;;;;9.90;8.10;;;;;;;15.65;48.39;101072.36;130317;1268;108774;-77
2022/04/28 11:21:39;;;;;;;9.80;8.00;;;;;;;15.62;46.48;101071.79;130433;1267;108798;-78
2022/04/28 11:24:45;;;;;;;9.60;7.90;;;;;;;15.64;48.87;101071.39;130413;1267;108530;-77
2022/04/28 11:27:59;;;;;;;9.20;7.70;;;;;;;15.74;49.34;101072.98;130296;1268;107785;-77
2022/04/28 11:31:09;;;;;;;11.20;8.60;;;;;;;15.87;48.93;101068.00;130348;1268;108682;-77
2022/04/28 11:34:15;;;;;;;9.60;7.80;;;;;;;15.96;48.75;101065.77;130340;1266;108854;-77
2022/04/28 11:37:22;;;;;;;8.20;7.20;;;;;;;16.06;49.49;101062.64;130435;1267;109106;-78
2022/04/28 11:40:30;;;;;;;9.10;7.30;;;;;;;16.12;48.95;101062.38;130389;1267;108896;-77
2022/04/28 11:43:36;;;;;;;8.90;7.30;;;;;;;16.13;48.88;101064.13;130410;1268;108781;-77
2022/04/28 11:46:50;;;;;;;9.20;7.10;;;;;;;16.11;48.12;101062.30;130370;1267;108809;-77
2022/04/28 11:50:01;;;;;;;8.60;7.50;;;;;;;16.06;46.95;101061.04;130362;1268;108678;-78
2022/04/28 11:53:09;;;;;;;7.80;6.80;;;;;;;15.98;48.09;101065.17;130341;1267;108764;-77
2022/04/28 11:56:25;;;;;;;8.50;6.80;;;;;;;15.99;46.47;101061.67;130405;1266;108644;-77
2022/04/28 11:59:38;;;;;;;7.80;6.70;;;;;;;15.97;46.52;101056.86;130327;1265;108665;-77
2022/04/28 12:02:44;;;;;;;10.00;7.20;;;;;;;16.05;46.43;101057.73;130314;1268;108752;-77
2022/04/28 12:05:53;;;;;;;8.60;6.60;;;;;;;15.93;45.49;101055.52;130252;1267;108630;-77
2022/04/28 12:14:21;;;;;;;8.20;7.10;;;;;;;15.81;45.20;101057.23;130228;1267;108852;-77
2022/04/28 12:15:49;;;;;;;9.00;7.50;;;;;;;16.02;46.71;101048.42;130391;1267;109956;-78
2022/04/28 12:19:25;;;;;;;8.90;7.80;;;;;;;16.08;47.43;101050.46;130471;1267;108938;-77
2022/04/28 12:22:37;;;;;;;8.20;7.30;;;;;;;15.99;46.90;101058.08;130341;1268;108793;-78
2022/04/28 12:25:44;;;;;;;10.30;7.20;;;;;;;15.91;47.25;101055.95;130291;1267;108718;-79
2022/04/28 12:28:50;;;;;;;8.00;7.00;;;;;;;15.84;47.48;101053.47;130466;1268;107750;-78
2022/04/28 12:32:00;;;;;;;9.30;6.70;;;;;;;15.79;47.48;101056.57;130565;1268;108750;-78
2022/04/28 12:35:07;;;;;;;8.50;7.20;;;;;;;15.79;47.67;101049.00;130508;1268;108640;-78
2022/04/28 12:38:12;;;;;;;9.20;7.40;;;;;;;15.82;45.60;101055.08;130507;1268;108763;-78
2022/04/28 12:41:21;;;;;;;7.60;6.80;;;;;;;15.85;46.20;101053.30;130367;1267;108713;-78
2022/04/28 12:44:28;;;;;;;9.70;7.40;;;;;;;15.92;45.69;101054.73;130404;1266;108884;-78
2022/04/28 12:47:38;;;;;;;9.50;7.60;;;;;;;15.94;46.23;101053.13;130369;1267;108647;-79
2022/04/28 12:50:44;;;;;;;9.00;7.10;;;;;;;16.00;46.30;101047.27;130431;1266;108913;-77
2022/04/28 12:53:51;;;;;;;9.10;7.40;;;;;;;16.06;46.14;101042.63;130368;1268;108138;-77
2022/04/28 12:56:59;;;;;;;7.70;6.70;;;;;;;16.14;46.33;101041.94;130379;1268;108804;-78
2022/04/28 13:00:07;;;;;;;8.60;7.20;;;;;;;16.23;45.83;101037.90;130428;1267;108745;-77
2022/04/28 13:03:12;;;;;;;7.90;6.70;;;;;;;16.33;45.99;101030.95;130711;1267;109034;-76
2022/04/28 13:06:18;;;;;;;7.90;6.80;;;;;;;16.35;43.51;101041.41;130369;1267;108842;-76
2022/04/28 13:09:26;;;;;;;9.00;6.50;;;;;;;16.25;44.06;101040.52;130366;1268;109106;-76
2022/04/28 13:12:32;;;;;;;7.40;6.30;;;;;;;16.21;44.33;101037.42;130358;1267;108747;-75
2022/04/28 13:15:37;;;;;;;9.10;6.80;;;;;;;16.26;44.56;101036.06;130329;1268;108866;-74
2022/04/28 13:18:43;;;;;;;8.10;6.00;;;;;;;16.25;43.18;101038.66;130384;1267;108702;-75
2022/04/28 13:21:49;;;;;;;7.80;6.50;;;;;;;16.30;43.96;101031.48;130421;1268;108696;-75
2022/04/28 13:24:55;;;;;;;8.40;6.70;;;;;;;16.35;43.62;101044.10;130425;1265;108804;-76
2022/04/28 13:28:02;;;;;;;6.90;5.80;;;;;;;16.38;44.15;101034.80;130420;1267;108712;-77
2022/04/28 13:31:08;;;;;;;7.20;6.20;;;;;;;16.31;43.28;101037.91;130378;1267;108836;-76
2022/04/28 13:34:13;;;;;;;8.30;6.60;;;;;;;16.19;44.53;101036.93;130565;1268;108662;-76
2022/04/28 13:37:19;;;;;;;7.10;6.10;;;;;;;16.22;44.49;101031.54;130154;1268;296294;-74
2022/04/28 13:40:24;;;;;;;8.40;6.40;;;;;;;16.25;43.21;101027.39;130387;1267;107744;-75
2022/04/28 13:43:31;;;;;;;10.10;6.90;;;;;;;16.26;44.15;101032.43;130348;1267;108829;-76
2022/04/28 13:46:36;;;;;;;8.60;6.70;;;;;;;16.35;44.06;101031.48;130393;1267;108581;-73
2022/04/28 13:49:42;;;;;;;8.40;6.80;;;;;;;16.37;43.30;101029.85;130522;1268;108807;-76
2022/04/28 13:52:48;;;;;;;9.00;6.70;;;;;;;16.38;43.92;101026.98;130320;1268;108622;-77
2022/04/28 13:55:54;;;;;;;7.90;6.30;;;;;;;16.39;43.51;101024.02;130399;1267;108768;-80
2022/04/28 13:59:00;;;;;;;9.60;6.60;;;;;;;16.47;42.99;101019.92;130325;1267;108649;-80
2022/04/28 14:02:05;;;;;;;9.40;6.60;;;;;;;16.45;43.68;101014.54;130403;1267;109762;-75
2022/04/28 14:05:13;;;;;;;8.60;6.60;;;;;;;16.52;43.98;101012.88;130409;1267;108903;-77
2022/04/28 14:08:18;;;;;;;9.70;7.00;;;;;;;16.59;42.27;101017.83;130540;1267;108580;-76
2022/04/28 14:11:24;;;;;;;8.00;6.80;;;;;;;16.58;42.52;101020.42;130390;1267;108738;-76
2022/04/28 14:14:30;;;;;;;9.10;6.70;;;;;;;16.66;43.21;101026.61;130475;1267;108674;-80
2022/04/28 14:17:36;;;;;;;8.50;7.30;;;;;;;16.77;43.01;101023.73;130413;1268;108671;-80
2022/04/28 14:20:42;;;;;;;8.00;6.50;;;;;;;16.76;42.72;101017.33;130346;1268;107712;-76
2022/04/28 14:23:48;;;;;;;8.40;6.90;;;;;;;16.78;42.71;101018.70;130355;1267;108762;-79
2022/04/28 14:26:53;;;;;;;9.60;6.90;;;;;;;16.56;41.08;101021.74;130502;1268;108776;-79
2022/04/28 14:29:58;;;;;;;9.00;7.10;;;;;;;16.25;42.38;101023.58;130413;1268;108655;-75
2022/04/28 14:33:05;;;;;;;11.90;7.30;;;;;;;16.03;42.82;101031.50;130351;1267;108950;-78
2022/04/28 14:36:11;;;;;;;8.50;7.20;;;;;;;15.86;42.82;101025.55;130399;1267;108737;-81
2022/04/28 14:39:16;;;;;;;8.70;6.20;;;;;;;15.85;43.48;101027.54;130441;1267;108620;-78
2022/04/28 14:42:22;;;;;;;9.10;6.20;;;;;;;15.81;42.52;101027.10;130350;1268;108845;-79
2022/04/28 14:45:29;;;;;;;7.80;6.30;;;;;;;15.71;42.94;101028.45;130382;1267;108938;-79
2022/04/28 14:52:19;;;;;;;7.40;6.30;;;;;;;15.64;43.32;101021.50;130395;1268;108858;-80
2022/04/28 14:55:24;;;;;;;8.80;5.80;;;;;;;15.71;43.51;101022.20;130340;1268;108824;-79